logo
Rechercher aéroport 
image banner adimage banner adimage banner ad
image banner ad

LKPP - Predni Kopanina

Situé à , Czech Republic

ICAO - , IATA -

Données fournies par Airmate  

Information générale

Coordonnées: N50°7'10" E14°18'11"
Élévation : 1125 feet MSL.
 
Voir autres Aéroports à Prague (capital city)

Données opérationnelles

Special qualification required
Heure actuelle UTC:
Heure actuelle locale:
Météo à : LKPR - Praha/Ruzyne ( 4 km )
METAR: LKPR 240630Z 05007KT CAVOK 15/12 Q1018 TEMPO SCT025TCU
TAF: TAF LKPR 240500Z 2406/2512 VRB02KT CAVOK BECMG 2406/2407 9999 SCT025 TEMPO 2407/2418 4000 SHRA BKN016CB PROB40 TEMPO 2407/2414 2500 TSRA BKN012CB BECMG 2418/2420 CAVOK BECMG 2500/2502 5000 BR NSC TEMPO 2502/2507 2000 BR SCT005 BECMG 2507/2509 9999 BKN020 TEMPO 2510/2512 4000 SHRA BKN018CB
Voir NOTAMs / SUP AIP / TFR affectant cet aéroport [VIEW]
Fréquences de communication: [VIEW]

Pistes:

Coordonnées de l'aéroport

Adresse: Czech Republic

Vue satellite de LKPP